ADDS METAR Data INFO
IDs: Format: Raw Decoded Include TAF

Data at: 1118 UTC 21 Feb 2018

PANA 201456Z AUTO 10005KT 5SM BR CLR M04/M05 A3046 RMK AO2 SLP313 T10441050 58000 FZRANO
PANA 201356Z AUTO 19006KT 6SM BR CLR M03/M04 A3050 RMK AO2 SLP328 T10331039 FZRANO
PANA 201256Z AUTO 21007KT 5SM BR CLR M02/M03 A3050 RMK AO2 SLP329 T10221028 FZRANO
PANA 201156Z AUTO 19007KT 5SM BR CLR M02/M02 A3046 RMK AO2 PRESRR SLP313 T10221022 10011 21022 51038 FZRANO
PANA 201056Z AUTO 21005KT 5SM BR CLR M01/M02 A3043 RMK AO2 SLP302 T10111017 FZRANO
PANA 200956Z AUTO 21007KT 5SM BR CLR M01/M01 A3039 RMK AO2 SLP289 T10061011 FZRANO
PANA 200856Z AUTO 21006KT 5SM BR CLR 00/M01 A3035 RMK AO2 SLP276 T00001006 400281011 51038 FZRANO
PANA 200756Z AUTO 22008KT 5SM BR FEW028 OVC035 01/00 A3032 RMK AO2 SLP265 T00060000 FZRANO
PANA 200656Z AUTO 20012KT 5SM BR SCT004 OVC035 01/01 A3027 RMK AO2 SLP248 T00110006 FZRANO
PANA 200647Z AUTO 20011KT 5SM BR SCT004 OVC037 01/01 A3026 RMK AO2 FZRANO
PANA 200556Z AUTO 20013KT 4SM BR OVC004 01/01 A3023 RMK AO2 SLP237 60000 T00110006 10017 20011 53024 FZRANO
PANA 200456Z AUTO 20014G21KT 8SM OVC004 01/01 A3020 RMK AO2 RAE46UPB13E27 SLP225 P0000 T00110006 FZRANO
PANA 200356Z AUTO 19018KT 3SM -RA BR OVC004 01/01 A3017 RMK AO2 PK WND 19026/0339 UPB0259E05 SLP214 P0000 T00110011 FZRANO
PANA 200352Z AUTO 19019G22KT 2 1/2SM -RA BR OVC004 01/01 A3016 RMK AO2 PK WND 19026/0339 UPB0259E05 P0000 FZRANO
PANA 200256Z AUTO 17015G21KT 8SM -RA OVC004 01/01 A3014 RMK AO2 RAE0159B17UPB0159E02 SLP205 P0000 60000 T00110006 53008 FZRANO
PANA 200249Z AUTO 17015G21KT 9SM -RA OVC004 01/01 A3013 RMK AO2 RAE0159B17UPB0159E02 CIG 004V008 P0000 FZRANO
PANA 200218Z AUTO 17016G23KT 10SM -RA OVC009 01/00 A3013 RMK AO2 RAE0159B17UPB0159E02 P0000 FZRANO
PANA 200156Z AUTO 17015G23KT 10SM -RA OVC011 01/00 A3012 RMK AO2 RAE10B43 SLP199 P0000 T00110000 FZRANO
PANA 200056Z AUTO 17017G26KT 7SM -RA OVC013 01/00 A3012 RMK AO2 PK WND 17026/0051 RAB03SNE03 SLP199 P0000 T00110000 FZRANO
PANA 200048Z AUTO 17017G24KT 7SM -RA OVC013 01/00 A3012 RMK AO2 RAB03SNE03 P0000 FZRANO
PANA 192349Z AUTO 17019G26KT 5SM -SN BR BKN026 OVC033 01/M01 A3012 RMK AO2 PK WND 17028/2335 RAE40SNB40 P0000 FZRANO